Racecast

Aidan Adams

RPM Legacy (CA) · 9-10 · PAC · Compare head to head

Athlete rating
Best race 70.4 TF
Races 37
Seasons 2 2014 — 2015
Speed rating — all races

Track & Field

TF speed rating

2015 TF

RPM Legacy (CA) · Grade 9-10

Date Meet Event Result Place Rating Difficulty PR/SR Flags
2015-05-31 PAC (Pacific Association Youth Champions 100m 20.94 68th · 4th on team -0.024
2015-05-16 3M Track Club Track and Field Invitation 400m 1:47.4 56th · 5th on team -0.028
2015-05-16 3M Track Club Track and Field Invitation 100m 20.8 81st · 4th on team -0.028
2015-05-09 Stockton Saints Track Club 100m 19.96 33rd · 3rd on team -0.022
2015-05-09 Stockton Saints Track Club 400m 1:43.87 28th · 5th on team -0.022
2015-05-02 Running Rebels/Top Pacers Invitational 400m 1:45.49 46th · 6th on team -0.038
2015-05-02 Running Rebels/Top Pacers Invitational 100m 20.37 56th · 4th on team -0.038
2015-04-25 Revolution Express Track Club 200m 45.14 54th · 6th on team -0.024
2015-04-25 Revolution Express Track Club 400m 1:38.58 50th · 6th on team -0.024 ★PR SR
2015-04-25 Revolution Express Track Club 100m 18.92 51st · 5th on team -0.024 ★PR SR
2015-04-18 Shor/Sheppard Invitational 200m 43.55 55th · 7th on team -0.023 ★PR SR
2015-04-18 Shor/Sheppard Invitational 400m 1:47.84 19th · 7th on team -0.023
2015-04-18 Shor/Sheppard Invitational 100m 19.08 30th · 1st on team -0.023 PR SR
2015-03-21 RPM Legacy 400m 1:45.06 94th · 7th on team -0.020 PR SR
2015-03-21 RPM Legacy 100m 20.72 80th · 5th on team -0.020 SR

2014 TF 70.4

RPM Legacy (CA) · Grade 7-8

Date Meet Event Result Place Rating Difficulty PR/SR Flags
2014-06-20 USATF Pacific Assoc. Junior Olympics (Top 8) javelin 3.95m -0.031
2014-06-20 USATF Pacific Assoc. Junior Olympics (Top 8) 200m 49.26 48th · 8th on team -0.031
2014-06-20 USATF Pacific Assoc. Junior Olympics (Top 8) 100m 21.7 47th · 9th on team -0.031
2014-05-31 Pacific Association Championships (PAC) javelin 5.74m -0.024
2014-05-31 Pacific Association Championships (PAC) 100m 23.54 64th · 11th on team -0.024
2014-05-31 Pacific Association Championships (PAC) 200m 51.38 47th · 11th on team -0.024
2014-05-25 Los Angeles Jets Invitational javelin 4.73m -0.027
2014-05-25 Los Angeles Jets Invitational 200m 48.39 106th · 7th on team -0.027 PR SR
2014-05-25 Los Angeles Jets Invitational 100m 23.34 102nd · 5th on team -0.027
2014-05-18 3M Invitational javelin 19-04 -0.028
2014-05-18 3M Invitational 100m 23.28 49th · 7th on team -0.028
2014-04-26 Revolution Express TC javelin 6.20m -0.024
2014-04-26 Revolution Express TC 200m 48.4 39th · 11th on team -0.024 PR SR
2014-04-26 Revolution Express TC 100m 23.36 43rd · 7th on team -0.024
2014-04-05 Sacramento Speed Showcase javelin 7.44m -0.033
2014-04-05 Sacramento Speed Showcase 200m 52.85 48th · 9th on team -0.033 PR SR
2014-04-05 Sacramento Speed Showcase 100m 24.18 73rd · 9th on team -0.033
2014-03-22 RPM 100m 19.94 42nd · 6th on team -0.012 PR SR
2014-03-22 RPM 800m 4:50 8th · 2nd on team 70.4 -0.012 ★PR ★R SR RSR
2014-03-22 RPM 400m 2:03.24 58th · 9th on team -0.012 PR SR
2014-03-01 RETC Practice Meet javelin 19'5" -0.024
2014-03-01 RETC Practice Meet lj 2'5" -0.024